Time;durP1;ratioP1;P1;durP2;ratioP2;P2;SDS_P1;SDS_P2;PMS_P1;PMS_P2;Temp;Humidity;BMP_temperature;BMP_pressure;BME280_temperature;BME280_humidity;BME280_pressure;Samples;Min_cycle;Max_cycle;Signal;HPM_P1;HPM_P2
2022/02/16 00:00:38;;;;;;;;;0.75;0.00;;;;;12.36;67.03;100576.22;5035025;28;45449;-75
2022/02/16 00:03:04;;;;;;;;;0.00;0.00;;;;;12.36;67.06;100570.88;5021817;28;45258;-75
2022/02/16 00:05:29;;;;;;;;;0.50;0.50;;;;;12.19;66.82;100536.75;5019125;28;45159;-75
2022/02/16 00:07:54;;;;;;;;;0.25;0.25;;;;;12.33;67.19;100551.38;5003938;28;45338;-76
2022/02/16 00:10:20;;;;;;;;;0.00;0.00;;;;;12.15;66.87;100515.59;5007438;28;45322;-75
2022/02/16 00:12:47;;;;;;;;;0.00;0.00;;;;;12.20;66.86;100522.47;5020565;28;45142;-75
2022/02/16 00:15:14;;;;;;;;;0.00;0.00;;;;;12.15;66.91;100508.41;5037551;28;46007;-75
2022/02/16 00:17:39;;;;;;;;;0.75;0.75;;;;;12.27;66.73;100511.50;5035914;28;45443;-75
2022/02/16 00:20:07;;;;;;;;;1.00;1.00;;;;;12.42;67.16;100529.56;5028697;28;45407;-75
2022/02/16 00:22:32;;;;;;;;;1.50;1.00;;;;;12.28;67.00;100511.44;5026118;28;45424;-75
2022/02/16 00:24:58;;;;;;;;;0.00;0.00;;;;;12.24;67.22;100501.78;5022152;28;45380;-73
2022/02/16 00:27:23;;;;;;;;;0.00;0.00;;;;;12.31;66.92;100515.78;5034513;28;45439;-73
2022/02/16 00:29:49;;;;;;;;;0.00;0.00;;;;;12.22;67.11;100498.31;5030119;28;45139;-75
2022/02/16 00:32:14;;;;;;;;;1.50;0.25;;;;;12.35;67.21;100515.59;5021577;28;45305;-75
2022/02/16 00:34:40;;;;;;;;;1.00;0.75;;;;;12.23;67.06;100492.03;5033845;28;45217;-74
2022/02/16 00:37:05;;;;;;;;;0.00;0.00;;;;;12.29;67.40;100502.47;5026309;28;45393;-75
2022/02/16 00:39:31;;;;;;;;;0.00;0.00;;;;;12.22;67.51;100484.94;5024588;28;45678;-75
2022/02/16 00:41:56;;;;;;;;;0.00;0.00;;;;;12.35;67.30;100496.84;5027299;28;45305;-74
2022/02/16 00:44:21;;;;;;;;;0.00;0.00;;;;;12.41;66.65;100506.41;5031864;28;45493;-75
2022/02/16 00:46:47;;;;;;;;;0.00;0.00;;;;;12.17;67.05;100462.84;5035160;28;45232;-75
2022/02/16 00:49:12;;;;;;;;;0.00;0.00;;;;;12.22;67.01;100463.53;5025220;28;45266;-75
2022/02/16 00:51:38;;;;;;;;;0.00;0.00;;;;;12.36;67.03;100487.00;5038863;28;45321;-75
2022/02/16 00:54:04;;;;;;;;;0.00;0.00;;;;;12.14;67.15;100449.63;5009993;28;47559;-75
2022/02/16 00:56:29;;;;;;;;;0.00;0.00;;;;;12.19;67.26;100456.50;5024302;28;45424;-75
2022/02/16 00:58:55;;;;;;;;;0.00;0.00;;;;;12.21;67.36;100459.09;5040154;28;45550;-75
2022/02/16 01:01:20;;;;;;;;;0.00;0.00;;;;;12.22;67.34;100445.66;5024332;28;45376;-75
2022/02/16 01:03:45;;;;;;;;;0.50;0.00;;;;;12.42;67.53;100468.88;5030214;28;45394;-75
2022/02/16 01:06:12;;;;;;;;;1.00;0.00;;;;;12.44;67.34;100479.50;5025275;28;45416;-75
2022/02/16 01:08:38;;;;;;;;;0.00;0.00;;;;;12.29;67.46;100442.72;5013432;28;45361;-75
2022/02/16 01:11:03;;;;;;;;;0.00;0.00;;;;;12.25;67.28;100425.94;5037526;28;45480;-74
2022/02/16 01:13:29;;;;;;;;;0.00;0.00;;;;;12.42;67.13;100457.28;5020017;28;47274;-75
2022/02/16 01:15:54;;;;;;;;;0.75;0.75;;;;;12.34;67.84;100438.88;5034901;28;45315;-74
2022/02/16 01:18:19;;;;;;;;;0.00;0.00;;;;;12.20;67.42;100420.78;5033782;28;45149;-74
2022/02/16 01:20:45;;;;;;;;;0.00;0.00;;;;;12.39;67.77;100444.91;5035670;28;45750;-74
2022/02/16 01:23:12;;;;;;;;;1.50;1.00;;;;;12.37;67.86;100433.41;5034068;28;46604;-74
2022/02/16 01:25:37;;;;;;;;;0.00;0.00;;;;;12.16;67.80;100397.78;5022642;28;45495;-75
2022/02/16 01:28:03;;;;;;;;;0.00;0.00;;;;;12.23;67.75;100414.44;5028422;28;45254;-75
2022/02/16 01:30:28;;;;;;;;;0.00;0.00;;;;;12.29;68.00;100423.97;5039930;28;45504;-75
2022/02/16 01:32:53;;;;;;;;;0.00;0.00;;;;;12.21;67.98;100411.81;5033334;28;46379;-74
2022/02/16 01:35:19;;;;;;;;;0.00;0.00;;;;;12.27;67.99;100423.19;5034284;28;45276;-74
2022/02/16 01:37:44;;;;;;;;;0.00;0.00;;;;;12.02;68.10;100389.50;5033380;28;45522;-74
2022/02/16 01:40:11;;;;;;;;;0.00;0.00;;;;;12.19;68.44;100402.97;5030861;28;45574;-75
2022/02/16 01:42:36;;;;;;;;;0.00;0.00;;;;;12.03;68.48;100381.41;5040354;28;45396;-74
2022/02/16 01:45:03;;;;;;;;;1.00;0.00;;;;;12.19;68.10;100397.63;5020858;28;45317;-74
2022/02/16 01:47:29;;;;;;;;;0.00;0.00;;;;;12.25;68.08;100414.38;5021257;28;45381;-74
2022/02/16 01:49:54;;;;;;;;;0.00;0.00;;;;;12.02;68.24;100370.75;5021019;28;45320;-74
2022/02/16 01:52:19;;;;;;;;;0.00;0.00;;;;;11.99;67.95;100360.19;5027235;28;45559;-74
2022/02/16 01:54:45;;;;;;;;;0.00;0.00;;;;;12.19;68.24;100396.75;5026254;28;45343;-74
2022/02/16 01:57:12;;;;;;;;;0.00;0.00;;;;;12.00;68.73;100343.22;5020799;28;45376;-74
2022/02/16 01:59:38;;;;;;;;;0.00;0.00;;;;;12.12;68.50;100366.72;5026036;28;45498;-75
2022/02/16 02:02:04;;;;;;;;;0.00;0.00;;;;;12.04;68.57;100355.50;5033108;28;46212;-74
2022/02/16 02:04:29;;;;;;;;;0.00;0.00;;;;;12.17;68.39;100364.72;5020598;28;45333;-74
2022/02/16 02:06:54;;;;;;;;;0.50;0.00;;;;;12.21;68.69;100358.31;5010496;28;45440;-74
2022/02/16 02:09:21;;;;;;;;;0.00;0.00;;;;;12.07;68.63;100333.97;5031456;28;45489;-74
2022/02/16 02:11:46;;;;;;;;;0.00;0.00;;;;;11.98;68.76;100311.19;5023883;28;45427;-75
2022/02/16 02:14:12;;;;;;;;;0.00;0.00;;;;;12.28;68.72;100356.22;5025956;28;45313;-74
2022/02/16 02:16:40;;;;;;;;;0.00;0.00;;;;;12.22;68.76;100345.78;5032896;28;45360;-74
2022/02/16 02:19:05;;;;;;;;;0.00;0.00;;;;;12.30;68.78;100345.44;5020697;28;45232;-75
2022/02/16 02:21:31;;;;;;;;;0.00;0.00;;;;;12.12;68.77;100315.91;5033713;28;45215;-74
2022/02/16 02:23:57;;;;;;;;;0.00;0.00;;;;;12.33;68.61;100346.16;5019706;28;45727;-75
2022/02/16 02:26:23;;;;;;;;;0.50;0.00;;;;;12.10;68.63;100309.75;5026347;28;45457;-75
2022/02/16 02:28:49;;;;;;;;;0.00;0.00;;;;;12.35;68.82;100346.09;5039951;28;45255;-75
2022/02/16 02:31:15;;;;;;;;;0.50;0.00;;;;;12.12;68.93;100297.16;5037729;28;45504;-74
2022/02/16 02:33:41;;;;;;;;;0.00;0.00;;;;;12.20;68.70;100296.84;5030085;28;45336;-74
2022/02/16 02:36:07;;;;;;;;;0.00;0.00;;;;;12.34;68.78;100326.47;5033096;28;45450;-75
2022/02/16 02:38:34;;;;;;;;;0.00;0.00;;;;;12.17;69.01;100289.81;5020130;28;45337;-75
2022/02/16 02:41:04;;;;;;;;;0.00;0.00;;;;;12.22;69.13;100289.59;5026650;28;45254;-75
2022/02/16 02:43:31;;;;;;;;;0.00;0.00;;;;;12.38;69.08;100306.69;5037689;28;45372;-75
2022/02/16 02:45:57;;;;;;;;;0.00;0.00;;;;;12.36;68.69;100296.97;5031900;28;45343;-75
2022/02/16 02:48:25;;;;;;;;;0.00;0.00;;;;;12.29;69.08;100290.19;5025928;28;45529;-75
2022/02/16 02:50:54;;;;;;;;;0.00;0.00;;;;;12.23;68.93;100273.47;5033785;28;45415;-75
2022/02/16 02:53:21;;;;;;;;;0.00;0.00;;;;;12.16;68.98;100250.63;5023643;28;45719;-75
2022/02/16 02:55:47;;;;;;;;;1.00;0.00;;;;;12.17;69.23;100252.34;5020080;28;45462;-75
2022/02/16 02:58:12;;;;;;;;;0.00;0.00;;;;;12.38;69.09;100279.06;5026651;28;45458;-75
2022/02/16 03:00:38;;;;;;;;;0.00;0.00;;;;;12.15;68.98;100240.00;5038859;28;45973;-75
2022/02/16 03:03:03;;;;;;;;;0.00;0.00;;;;;12.25;69.16;100252.00;5022342;28;45410;-76
2022/02/16 03:05:28;;;;;;;;;0.00;0.00;;;;;12.36;69.10;100264.84;5019982;28;45507;-75
2022/02/16 03:07:54;;;;;;;;;0.00;0.00;;;;;12.41;69.33;100271.75;5036211;28;45224;-75
2022/02/16 03:10:19;;;;;;;;;0.00;0.00;;;;;12.21;69.27;100219.16;5029075;28;45248;-75
2022/02/16 03:12:45;;;;;;;;;0.00;0.00;;;;;12.38;69.29;100247.78;5032052;28;45216;-75
2022/02/16 03:15:10;;;;;;;;;0.00;0.00;;;;;12.14;69.48;100200.78;5027596;28;45199;-75
2022/02/16 03:17:36;;;;;;;;;0.00;0.00;;;;;12.45;69.62;100243.00;5024126;28;45159;-75
2022/02/16 03:20:05;;;;;;;;;0.00;0.00;;;;;12.39;69.38;100227.25;5026461;28;45491;-76
2022/02/16 03:22:31;;;;;;;;;0.00;0.00;;;;;12.30;69.70;100212.50;5036960;28;45299;-75
2022/02/16 03:24:56;;;;;;;;;0.00;0.00;;;;;12.20;69.35;100189.81;5019732;28;45218;-76
2022/02/16 03:27:22;;;;;;;;;0.00;0.00;;;;;12.46;69.87;100236.69;5030826;28;45313;-75
2022/02/16 03:29:48;;;;;;;;;0.00;0.00;;;;;12.37;69.90;100211.25;5022084;28;46169;-75
2022/02/16 03:32:14;;;;;;;;;0.00;0.00;;;;;12.43;69.79;100223.50;5019397;28;45216;-75
2022/02/16 03:34:39;;;;;;;;;0.00;0.00;;;;;12.41;69.88;100220.00;5031248;28;45287;-75
2022/02/16 03:37:05;;;;;;;;;0.00;0.00;;;;;12.23;69.77;100173.59;5024133;28;45289;-75
2022/02/16 03:39:31;;;;;;;;;0.00;0.00;;;;;12.25;69.73;100186.91;5025235;28;45903;-75
2022/02/16 03:41:57;;;;;;;;;0.00;0.00;;;;;12.22;69.78;100180.75;5024916;28;45664;-75
2022/02/16 03:44:23;;;;;;;;;1.00;0.00;;;;;12.48;70.01;100218.78;5030075;28;45395;-75
2022/02/16 03:46:51;;;;;;;;;0.00;0.00;;;;;12.30;69.77;100190.22;5023815;28;45328;-75
2022/02/16 03:49:17;;;;;;;;;0.00;0.00;;;;;12.30;70.07;100169.69;5021299;28;45583;-75
2022/02/16 03:51:42;;;;;;;;;0.00;0.00;;;;;12.51;70.17;100204.34;5019025;28;45329;-75
2022/02/16 03:54:08;;;;;;;;;0.00;0.00;;;;;12.33;69.97;100174.00;5018461;28;45361;-75
2022/02/16 03:56:33;;;;;;;;;0.00;0.00;;;;;12.32;69.45;100167.78;5022089;28;45443;-76
2022/02/16 03:58:58;;;;;;;;;0.00;0.00;;;;;12.48;70.02;100185.75;5023130;28;46544;-75
2022/02/16 04:01:24;;;;;;;;;0.00;0.00;;;;;12.29;70.01;100164.41;5037757;28;45415;-75
2022/02/16 04:03:49;;;;;;;;;0.00;0.00;;;;;12.30;70.18;100167.00;5031720;28;45343;-74
2022/02/16 04:06:15;;;;;;;;;0.00;0.00;;;;;12.35;70.41;100170.31;5024537;28;45284;-75
2022/02/16 04:08:40;;;;;;;;;0.00;0.00;;;;;12.33;70.07;100165.97;5022649;28;45807;-75
2022/02/16 04:11:05;;;;;;;;;0.00;0.00;;;;;12.40;70.22;100170.97;5032394;28;45370;-75
2022/02/16 04:13:31;;;;;;;;;0.00;0.00;;;;;12.41;70.20;100166.47;5030065;28;45311;-75
2022/02/16 04:15:57;;;;;;;;;0.00;0.00;;;;;12.46;70.06;100168.91;5018558;28;45487;-75
2022/02/16 04:18:22;;;;;;;;;0.00;0.00;;;;;12.55;70.34;100182.72;5033102;28;46187;-76
2022/02/16 04:20:47;;;;;;;;;0.00;0.00;;;;;12.41;70.08;100158.44;5024879;28;45435;-75
2022/02/16 04:23:13;;;;;;;;;0.00;0.00;;;;;12.61;70.43;100184.22;5017033;28;45446;-75
2022/02/16 04:25:39;;;;;;;;;0.00;0.00;;;;;12.38;70.50;100142.56;5022268;28;45541;-76
2022/02/16 04:28:07;;;;;;;;;0.00;0.00;;;;;12.42;70.82;100153.00;5047062;28;45525;-76
2022/02/16 04:30:33;;;;;;;;;0.00;0.00;;;;;12.66;70.46;100192.03;5034159;28;45395;-76
2022/02/16 04:32:58;;;;;;;;;0.00;0.00;;;;;12.39;70.61;100146.94;5022127;28;45301;-75
2022/02/16 04:35:24;;;;;;;;;0.75;0.00;;;;;12.45;70.60;100157.34;5036601;28;48790;-76
2022/02/16 04:37:49;;;;;;;;;0.00;0.00;;;;;12.59;70.50;100170.03;5021870;28;46407;-76
2022/02/16 04:40:16;;;;;;;;;0.00;0.00;;;;;12.46;70.79;100143.00;5013211;28;45464;-76
2022/02/16 04:42:41;;;;;;;;;0.00;0.00;;;;;12.56;70.56;100159.47;5015025;28;45371;-76
2022/02/16 04:45:08;;;;;;;;;0.00;0.00;;;;;12.71;70.56;100177.47;5021949;28;45424;-75
2022/02/16 04:47:33;;;;;;;;;0.00;0.00;;;;;12.54;70.91;100148.84;5021854;28;45473;-75
2022/02/16 04:49:59;;;;;;;;;0.00;0.00;;;;;12.66;70.50;100162.56;5025923;28;45223;-76
2022/02/16 04:52:34;;;;;;;;;0.00;0.00;;;;;12.51;70.75;100140.09;5035806;28;45598;-76
2022/02/16 04:55:03;;;;;;;;;0.00;0.00;;;;;12.51;70.51;100130.28;5023671;28;45415;-75
2022/02/16 04:57:29;;;;;;;;;0.00;0.00;;;;;12.69;70.69;100160.59;5021568;28;46157;-76
2022/02/16 04:59:58;;;;;;;;;0.00;0.00;;;;;12.59;70.90;100143.28;5011263;28;45237;-75
2022/02/16 05:02:26;;;;;;;;;0.00;0.00;;;;;12.58;71.01;100133.53;5033914;28;45442;-76
2022/02/16 05:04:53;;;;;;;;;1.00;0.00;;;;;12.64;71.02;100138.53;5022540;28;45428;-75
2022/02/16 05:07:18;;;;;;;;;0.00;0.00;;;;;12.55;70.84;100126.50;5020852;28;45412;-75
2022/02/16 05:09:44;;;;;;;;;0.00;0.00;;;;;12.56;71.18;100108.63;5020698;28;45432;-76
2022/02/16 05:12:10;;;;;;;;;0.00;0.00;;;;;12.56;71.11;100122.88;5033335;28;45317;-75
2022/02/16 05:14:35;;;;;;;;;0.00;0.00;;;;;12.60;71.47;100121.78;5024222;28;45369;-75
2022/02/16 05:17:01;;;;;;;;;0.00;0.00;;;;;12.64;70.91;100119.81;5041488;28;45296;-75
2022/02/16 05:19:26;;;;;;;;;0.00;0.00;;;;;12.83;71.36;100162.59;5026629;28;45313;-76
2022/02/16 05:21:51;;;;;;;;;0.00;0.00;;;;;12.75;71.30;100146.06;5040368;28;45777;-76
2022/02/16 05:24:17;;;;;;;;;0.00;0.00;;;;;12.74;71.28;100150.53;5024714;28;46296;-75
2022/02/16 05:26:43;;;;;;;;;0.00;0.00;;;;;12.70;71.35;100138.25;5028632;28;45978;-75
2022/02/16 05:29:08;;;;;;;;;0.00;0.00;;;;;12.70;71.15;100132.88;5038129;28;45312;-76
2022/02/16 05:31:34;;;;;;;;;0.00;0.00;;;;;12.70;71.04;100116.81;5032209;28;45242;-75
2022/02/16 05:34:00;;;;;;;;;0.00;0.00;;;;;12.85;71.54;100159.84;5012622;28;45642;-75
2022/02/16 05:36:25;;;;;;;;;0.75;0.00;;;;;12.71;71.46;100128.38;5031169;28;46483;-76
2022/02/16 05:38:51;;;;;;;;;0.00;0.00;;;;;12.93;71.35;100166.53;5020308;28;45434;-75
2022/02/16 05:41:16;;;;;;;;;0.00;0.00;;;;;12.76;71.45;100126.34;5031503;28;45526;-75
2022/02/16 05:43:41;;;;;;;;;0.00;0.00;;;;;12.82;71.37;100144.78;5036338;28;45636;-75
2022/02/16 05:46:07;;;;;;;;;0.00;0.00;;;;;13.01;71.57;100166.13;5020908;28;45450;-75
2022/02/16 05:48:32;;;;;;;;;0.00;0.00;;;;;12.78;71.51;100117.28;5019944;28;45446;-75
2022/02/16 05:50:58;;;;;;;;;0.00;0.00;;;;;12.84;71.65;100134.00;5023103;28;45982;-75
2022/02/16 05:53:23;;;;;;;;;0.00;0.00;;;;;13.00;71.57;100153.69;5003024;28;46121;-75
2022/02/16 05:55:48;;;;;;;;;0.75;0.00;;;;;12.92;71.24;100146.03;5002692;28;47882;-75
2022/02/16 05:58:14;;;;;;;;;0.00;0.00;;;;;13.10;71.52;100183.56;5019883;28;45285;-74
2022/02/16 06:00:39;;;;;;;;;0.00;0.00;;;;;13.11;71.61;100179.91;5022979;28;45122;-75
2022/02/16 06:03:05;;;;;;;;;0.00;0.00;;;;;13.06;71.46;100164.06;5020630;28;45554;-75
2022/02/16 06:05:31;;;;;;;;;0.00;0.00;;;;;12.91;71.55;100130.94;5020658;28;45364;-75
2022/02/16 06:07:56;;;;;;;;;0.00;0.00;;;;;12.96;71.62;100142.28;5031152;28;45420;-75
2022/02/16 06:10:22;;;;;;;;;0.00;0.00;;;;;13.11;71.50;100169.19;5028255;28;45396;-75
2022/02/16 06:12:47;;;;;;;;;0.00;0.00;;;;;12.98;71.18;100140.38;5020328;28;45238;-75
2022/02/16 06:15:13;;;;;;;;;0.00;0.00;;;;;13.07;71.35;100148.88;5007425;28;46251;-75
2022/02/16 06:17:38;;;;;;;;;0.00;0.00;;;;;13.04;71.59;100139.19;5025866;28;45206;-75
2022/02/16 06:20:04;;;;;;;;;0.00;0.00;;;;;13.16;71.43;100167.13;5028598;28;45424;-75
2022/02/16 06:22:30;;;;;;;;;0.00;0.00;;;;;13.11;71.47;100150.44;5038592;28;45529;-75
2022/02/16 06:24:55;;;;;;;;;0.00;0.00;;;;;13.14;71.20;100158.31;5020182;28;45370;-74
2022/02/16 06:27:22;;;;;;;;;0.00;0.00;;;;;13.13;71.58;100143.19;5033775;28;45490;-74
2022/02/16 06:29:47;;;;;;;;;0.00;0.00;;;;;13.16;71.44;100132.31;5039774;28;45380;-74
2022/02/16 06:32:13;;;;;;;;;0.00;0.00;;;;;13.15;71.51;100146.66;5037703;28;45399;-75
2022/02/16 06:34:38;;;;;;;;;0.00;0.00;;;;;13.11;71.77;100156.69;5043462;28;46460;-75
2022/02/16 06:37:03;;;;;;;;;0.00;0.00;;;;;13.26;71.62;100167.53;5035287;28;45711;-74
2022/02/16 06:39:29;;;;;;;;;0.00;0.00;;;;;13.14;71.67;100145.78;5006518;28;45409;-74
2022/02/16 06:41:54;;;;;;;;;0.00;0.00;;;;;13.18;71.54;100135.78;5038289;28;45347;-74
2022/02/16 06:44:20;;;;;;;;;0.00;0.00;;;;;13.22;71.83;100147.22;5030668;28;48427;-74
2022/02/16 06:46:47;;;;;;;;;0.00;0.00;;;;;13.27;71.79;100155.88;5033122;28;45237;-74
2022/02/16 06:49:12;;;;;;;;;0.00;0.00;;;;;13.13;71.81;100149.44;5021883;28;45438;-74
2022/02/16 06:51:37;;;;;;;;;0.00;0.00;;;;;13.43;71.79;100190.78;5038300;28;45476;-74
2022/02/16 06:54:03;;;;;;;;;0.00;0.00;;;;;13.20;71.81;100149.97;5027038;28;45210;-74
2022/02/16 06:56:30;;;;;;;;;0.00;0.00;;;;;13.37;71.78;100173.22;5030634;28;45478;-74
2022/02/16 06:58:56;;;;;;;;;0.00;0.00;;;;;13.46;71.47;100202.22;5036264;28;45325;-74
2022/02/16 07:01:22;;;;;;;;;0.00;0.00;;;;;13.28;71.50;100179.91;5033552;28;45889;-74
2022/02/16 07:03:47;;;;;;;;;0.00;0.00;;;;;13.51;71.98;100216.28;5025144;28;45380;-74
2022/02/16 07:06:12;;;;;;;;;0.00;0.00;;;;;13.52;72.02;100217.13;5036254;28;45360;-74
2022/02/16 07:09:19;;;;;;;;;1.00;0.00;;;;;13.22;71.59;100165.97;5032833;28;45556;-78
2022/02/16 07:11:45;;;;;;;;;0.00;0.00;;;;;13.56;71.85;100213.31;5011002;28;45904;-72
2022/02/16 07:18:29;;;;;;;;;;;;;;;;;;;;;
2022/02/16 07:20:55;;;;;;;;;1.00;0.00;;;;;13.42;71.81;100191.75;5010511;28;68897;-72
2022/02/16 07:24:11;;;;;;;;;;;;;;;;;;;;;
2022/02/16 07:27:36;;;;;;;;;;;;;;;;;;;;;
2022/02/16 07:30:48;;;;;;;;;;;;;;;;;;;;;
2022/02/16 07:58:29;;;;;;;;;0.00;0.00;;;;;13.46;71.81;100170.03;5212252;22;48508;-68
2022/02/16 08:00:57;;;;;;;;;0.50;0.00;;;;;13.63;71.85;100195.97;4998739;28;45639;-68
2022/02/16 08:03:22;;;;;;;;;1.75;0.00;;;;;13.71;71.55;100204.47;5020234;28;45466;-67
2022/02/16 08:05:48;;;;;;;;;0.50;0.00;;;;;13.71;71.74;100209.84;5019825;28;45421;-71
2022/02/16 08:08:13;;;;;;;;;1.00;1.00;;;;;13.74;71.96;100208.78;5016342;28;45858;-71
2022/02/16 08:10:39;;;;;;;;;1.00;1.00;;;;;13.67;71.80;100185.94;5021719;28;45522;-71
2022/02/16 08:13:04;;;;;;;;;1.00;1.00;;;;;13.96;72.07;100226.41;5018182;28;47880;-71
2022/02/16 08:15:36;;;;;;;;;0.00;0.00;;;;;13.96;71.99;100219.22;4999590;28;45490;-72
2022/02/16 08:18:01;;;;;;;;;0.00;0.00;;;;;13.76;72.15;100187.25;5005818;28;45392;-72
2022/02/16 08:20:27;;;;;;;;;0.00;0.00;;;;;13.83;71.98;100204.75;5019613;28;45573;-72
2022/02/16 08:22:53;;;;;;;;;0.00;0.00;;;;;13.89;71.96;100216.00;4999128;28;45378;-72
2022/02/16 08:25:18;;;;;;;;;0.00;0.00;;;;;13.88;72.08;100227.72;5020490;28;45353;-72
2022/02/16 08:27:45;;;;;;;;;0.50;0.00;;;;;13.78;71.94;100212.16;5019370;28;46451;-72
2022/02/16 08:30:12;;;;;;;;;0.00;0.00;;;;;13.87;72.05;100230.47;5018557;28;46151;-72
2022/02/16 08:32:39;;;;;;;;;0.00;0.00;;;;;13.83;71.83;100218.16;5017059;28;46218;-72
2022/02/16 08:35:09;;;;;;;;;0.00;0.00;;;;;13.98;71.86;100235.22;5020943;28;45350;-72
2022/02/16 08:37:35;;;;;;;;;1.00;1.00;;;;;13.94;71.96;100234.53;5020715;28;45532;-72
2022/02/16 08:40:01;;;;;;;;;0.00;0.00;;;;;13.99;71.78;100240.53;5016165;28;46031;-72
2022/02/16 08:42:26;;;;;;;;;1.00;0.00;;;;;14.01;72.07;100227.03;5013124;28;45791;-72
2022/02/16 08:44:52;;;;;;;;;0.00;0.00;;;;;14.08;72.12;100245.41;5019114;28;46215;-73
2022/02/16 08:47:17;;;;;;;;;0.00;0.00;;;;;13.94;72.11;100220.25;5020271;28;45496;-73
2022/02/16 08:49:44;;;;;;;;;0.00;0.00;;;;;14.14;72.32;100246.00;5019824;28;45465;-75
2022/02/16 08:52:10;;;;;;;;;0.00;0.00;;;;;14.21;72.04;100247.41;5020278;28;45624;-72
2022/02/16 08:54:35;;;;;;;;;0.00;0.00;;;;;14.21;72.54;100255.44;5017978;28;45467;-74
2022/02/16 08:57:03;;;;;;;;;0.00;0.00;;;;;13.96;72.20;100210.31;5013816;28;46039;-74
2022/02/16 08:59:29;;;;;;;;;0.00;0.00;;;;;14.06;72.64;100222.25;5019907;28;46383;-73
2022/02/16 09:01:54;;;;;;;;;0.00;0.00;;;;;14.22;72.50;100251.81;5014596;28;45507;-73
2022/02/16 09:04:19;;;;;;;;;1.75;0.25;;;;;14.13;72.48;100238.91;5012533;28;45594;-73
2022/02/16 09:09:37;;;;;;;;;0.00;0.00;;;;;14.14;72.25;100233.44;5020727;28;45517;-74
2022/02/16 09:12:04;;;;;;;;;1.00;1.00;;;;;14.34;72.04;100267.25;5019049;28;45420;-74
2022/02/16 09:14:29;;;;;;;;;0.00;0.00;;;;;14.13;72.35;100230.84;5017956;28;45704;-73
2022/02/16 09:17:05;;;;;;;;;0.00;0.00;;;;;14.01;72.09;100214.47;4990526;28;45420;-69
2022/02/16 09:19:35;;;;;;;;;0.00;0.00;;;;;14.39;72.21;100259.78;5020164;28;46374;-73
2022/02/16 10:12:50;;;;;;;;;;;;;;;;;;;;;
2022/02/16 14:17:56;;;;;;;;;0.00;0.00;;;;;16.18;67.49;100272.59;4993457;28;45888;-70
2022/02/16 17:45:58;;;;;;;;;1.00;1.00;;;;;15.78;70.42;100267.88;1420693;26;46167;-69
2022/02/16 17:48:30;;;;;;;;;1.00;1.00;;;;;15.97;70.36;100289.13;5026610;28;46678;-71
2022/02/16 17:50:57;;;;;;;;;0.50;0.50;;;;;15.94;70.19;100289.31;5027325;28;45734;-71
2022/02/16 17:53:26;;;;;;;;;0.50;0.50;;;;;15.85;69.87;100285.34;5013000;28;45858;-71
2022/02/16 17:55:53;;;;;;;;;0.00;0.00;;;;;15.77;70.09;100266.16;5004274;28;45484;-71
2022/02/16 17:58:18;;;;;;;;;1.00;1.00;;;;;15.85;70.45;100271.91;5000248;28;45451;-70
2022/02/16 18:00:45;;;;;;;;;1.00;0.00;;;;;15.89;70.33;100280.69;5010432;28;45443;-73
2022/02/16 18:03:13;;;;;;;;;3.50;2.50;;;;;15.89;70.80;100278.84;5008132;28;45528;-73
2022/02/16 18:05:42;;;;;;;;;0.75;0.75;;;;;15.79;70.53;100260.69;5000741;28;45507;-71
2022/02/16 18:08:07;;;;;;;;;0.25;0.25;;;;;15.72;70.43;100249.41;5000137;28;45349;-71
2022/02/16 18:10:33;;;;;;;;;1.00;1.00;;;;;15.92;71.02;100293.91;5005729;28;45384;-73
2022/02/16 18:12:58;;;;;;;;;1.00;1.00;;;;;15.93;70.92;100301.03;5000698;28;45420;-76
2022/02/16 18:15:25;;;;;;;;;1.00;0.25;;;;;15.83;70.83;100294.50;4993085;28;47151;-72
2022/02/16 18:18:08;;;;;;;;;2.00;2.00;;;;;15.89;70.36;100289.59;5015724;28;45445;-69
2022/02/16 18:20:33;;;;;;;;;2.00;2.00;;;;;16.05;70.53;100315.56;5009383;28;45441;-73
2022/02/16 18:22:59;;;;;;;;;1.00;1.00;;;;;15.90;70.37;100288.66;5005588;28;45444;-69
2022/02/16 18:25:24;;;;;;;;;3.00;1.00;;;;;15.85;70.50;100285.34;5012216;28;46011;-71
2022/02/16 18:27:50;;;;;;;;;1.00;1.00;;;;;15.86;70.48;100281.72;5013553;28;45388;-68
2022/02/16 18:30:18;;;;;;;;;1.00;1.00;;;;;15.90;70.29;100272.50;5014379;28;45482;-74
2022/02/16 18:32:45;;;;;;;;;1.00;1.00;;;;;15.98;70.28;100288.16;4994133;28;45539;-73
2022/02/16 18:35:10;;;;;;;;;1.00;1.00;;;;;15.88;70.26;100278.94;4996414;28;47268;-69
2022/02/16 18:37:41;;;;;;;;;0.25;0.25;;;;;16.03;70.42;100315.66;5018446;28;45511;-70
2022/02/16 18:40:18;;;;;;;;;;;;;;;;;;;;;
2022/02/16 18:42:44;;;;;;;;;1.00;1.00;;;;;15.75;70.06;100297.63;5005594;28;73780;-71
2022/02/16 18:45:23;;;;;;;;;0.00;0.00;;;;;15.77;69.80;100297.56;5012044;28;45455;-70
2022/02/16 18:48:26;;;;;;;;;;;;;;;;;;;;;
2022/02/16 18:51:02;;;;;;;;;2.00;0.25;;;;;15.72;69.60;100313.97;5015801;28;68863;-70
2022/02/16 18:53:45;;;;;;;;;0.25;0.25;;;;;15.72;69.76;100304.06;4997494;28;45545;-70
2022/02/16 18:56:24;;;;;;;;;;;;;;;;;;;;;
2022/02/16 18:58:55;;;;;;;;;0.75;0.75;;;;;15.97;69.63;100352.84;5017523;28;72988;-70
2022/02/16 19:01:48;;;;;;;;;1.75;0.75;;;;;15.96;69.42;100359.22;5017170;28;45440;-70
2022/02/16 19:04:39;;;;;;;;;0.00;0.00;;;;;15.86;69.25;100338.22;5004718;28;45317;-70
2022/02/16 19:07:14;;;;;;;;;0.00;0.00;;;;;15.90;69.76;100342.50;5005532;28;46189;-70
2022/02/16 19:09:59;;;;;;;;;0.00;0.00;;;;;15.74;69.47;100312.06;4998495;28;45538;-70
2022/02/16 19:12:35;;;;;;;;;1.00;1.00;;;;;15.94;69.64;100356.63;5014253;28;45550;-70
2022/02/16 19:15:00;;;;;;;;;1.50;1.00;;;;;15.93;69.46;100358.44;4996615;28;47422;-72
2022/02/16 19:17:26;;;;;;;;;3.00;1.00;;;;;15.69;69.69;100315.00;5013864;28;45778;-79
2022/02/16 19:19:51;;;;;;;;;1.00;1.00;;;;;15.81;69.29;100337.66;5006200;28;45396;-75
2022/02/16 19:22:16;;;;;;;;;2.00;1.00;;;;;15.72;69.41;100311.28;5006651;28;45721;-72
2022/02/16 19:24:42;;;;;;;;;1.00;0.00;;;;;15.87;69.22;100329.22;5014496;28;45775;-75
2022/02/16 19:27:08;;;;;;;;;1.00;1.00;;;;;15.80;69.05;100327.84;5006603;28;45732;-76
2022/02/16 19:29:33;;;;;;;;;0.75;0.75;;;;;15.77;69.19;100311.91;5012169;28;45648;-73
2022/02/16 19:31:59;;;;;;;;;0.25;0.25;;;;;15.88;69.05;100330.06;5015154;28;45528;-76
2022/02/16 19:34:26;;;;;;;;;0.00;0.00;;;;;15.77;68.95;100303.81;5008637;28;45866;-75
2022/02/16 19:36:52;;;;;;;;;2.00;2.00;;;;;15.71;68.88;100298.78;5018457;28;46044;-76
2022/02/16 19:39:17;;;;;;;;;1.00;1.00;;;;;15.92;68.63;100323.53;5017586;28;45726;-74
2022/02/16 19:41:42;;;;;;;;;2.00;0.00;;;;;15.74;68.66;100302.13;5015475;28;45558;-76
2022/02/16 19:44:09;;;;;;;;;1.00;1.00;;;;;15.82;68.83;100323.25;5014025;28;45540;-76
2022/02/16 19:46:34;;;;;;;;;2.50;1.00;;;;;15.73;68.73;100313.84;5011138;28;45452;-75
2022/02/16 19:49:00;;;;;;;;;1.00;1.00;;;;;15.68;68.75;100296.25;5018420;28;45569;-70
2022/02/16 19:51:25;;;;;;;;;1.00;1.00;;;;;15.71;68.57;100304.16;5016747;28;45521;-72
2022/02/16 19:53:51;;;;;;;;;0.25;0.25;;;;;15.70;68.72;100310.47;5018303;28;45684;-71
2022/02/16 19:56:16;;;;;;;;;0.00;0.00;;;;;15.63;68.66;100301.91;5016568;28;45700;-73
2022/02/16 19:58:43;;;;;;;;;1.00;1.00;;;;;15.70;68.48;100322.13;5009178;28;45428;-73
2022/02/16 20:01:08;;;;;;;;;2.00;0.00;;;;;15.73;68.51;100321.06;5016646;28;45531;-73
2022/02/16 20:03:34;;;;;;;;;1.75;1.00;;;;;15.69;68.67;100311.47;5017336;28;45603;-72
2022/02/16 20:05:59;;;;;;;;;0.25;0.25;;;;;15.85;68.34;100324.88;5014006;28;46000;-74
2022/02/16 20:08:25;;;;;;;;;3.25;1.00;;;;;15.55;68.55;100274.63;5013752;28;45424;-72
2022/02/16 20:10:50;;;;;;;;;0.00;0.00;;;;;15.78;67.96;100321.69;5015992;28;45430;-72
2022/02/16 20:13:16;;;;;;;;;1.00;1.00;;;;;15.62;68.67;100280.50;4997036;28;45638;-71
2022/02/16 20:15:41;;;;;;;;;1.50;0.00;;;;;15.69;68.41;100303.41;5014383;28;46290;-72
2022/02/16 20:18:11;;;;;;;;;0.00;0.00;;;;;15.59;68.41;100291.47;5017831;28;45799;-76
2022/02/16 20:20:38;;;;;;;;;1.50;0.50;;;;;15.70;68.21;100288.97;5015695;28;45515;-73
2022/02/16 20:23:07;;;;;;;;;0.00;0.00;;;;;15.87;68.23;100314.88;5013590;28;45561;-73
2022/02/16 20:25:33;;;;;;;;;1.00;1.00;;;;;15.62;68.01;100286.75;5005266;28;49000;-73
2022/02/16 20:27:59;;;;;;;;;1.00;0.00;;;;;15.53;68.38;100253.19;4996057;28;45845;-77